createdAt,value
2022-08-26T00:01:29.195Z,36.30
2022-08-26T00:04:21.402Z,36.30
2022-08-26T00:07:02.186Z,36.30
2022-08-26T00:09:21.439Z,36.30
2022-08-26T00:11:50.399Z,36.27
2022-08-26T00:14:07.203Z,36.24
2022-08-26T00:16:35.553Z,36.23
2022-08-26T00:19:03.271Z,36.21
2022-08-26T00:22:00.209Z,36.21
2022-08-26T00:24:20.334Z,36.16
2022-08-26T00:26:42.981Z,36.14
2022-08-26T00:29:29.821Z,36.13
2022-08-26T00:31:45.202Z,36.10
2022-08-26T00:33:56.305Z,36.08
2022-08-26T00:36:09.085Z,36.05
2022-08-26T00:38:37.823Z,36.02
2022-08-26T00:41:13.909Z,35.98
2022-08-26T00:43:31.844Z,35.97
2022-08-26T00:46:30.440Z,35.94
2022-08-26T00:49:19.661Z,35.92
2022-08-26T00:52:09.860Z,35.90
2022-08-26T00:54:47.967Z,35.84
2022-08-26T00:57:22.692Z,35.78
2022-08-26T01:00:05.831Z,35.67
2022-08-26T01:02:36.268Z,35.60
2022-08-26T01:05:06.098Z,35.55
2022-08-26T01:08:18.817Z,35.47
2022-08-26T01:10:39.990Z,35.39
2022-08-26T01:13:53.602Z,35.33
2022-08-26T01:16:34.344Z,35.24
2022-08-26T01:19:45.054Z,35.18
2022-08-26T01:22:17.473Z,35.08
2022-08-26T01:24:32.991Z,34.99
2022-08-26T01:26:46.011Z,34.93
2022-08-26T01:29:20.318Z,34.87
2022-08-26T01:31:50.135Z,34.81
2022-08-26T01:34:36.269Z,34.73
2022-08-26T01:36:59.928Z,34.67
2022-08-26T01:39:11.888Z,34.60
2022-08-26T01:41:27.567Z,34.54
2022-08-26T01:43:48.406Z,34.47
2022-08-26T01:46:19.541Z,34.42
2022-08-26T01:48:41.590Z,34.35
2022-08-26T01:50:48.727Z,34.27
2022-08-26T01:53:30.999Z,34.20
2022-08-26T01:55:56.280Z,34.11
2022-08-26T01:58:20.115Z,33.99
2022-08-26T02:00:31.023Z,33.91
2022-08-26T02:02:47.184Z,33.86
2022-08-26T02:05:13.553Z,33.80
2022-08-26T02:07:33.387Z,33.73
2022-08-26T02:10:03.229Z,33.66
2022-08-26T02:12:12.144Z,33.60
2022-08-26T02:14:51.319Z,33.54
2022-08-26T02:17:11.715Z,33.47
2022-08-26T02:19:28.874Z,33.39
2022-08-26T02:21:41.965Z,33.30
2022-08-26T02:23:53.195Z,33.23
2022-08-26T02:26:16.285Z,33.17
2022-08-26T02:28:38.058Z,33.11
2022-08-26T02:30:50.082Z,33.05
2022-08-26T02:33:22.723Z,32.98
2022-08-26T02:35:40.762Z,32.89
2022-08-26T02:38:31.655Z,32.80
2022-08-26T02:40:48.225Z,32.72
2022-08-26T02:42:58.039Z,32.64
2022-08-26T02:45:36.920Z,32.57
2022-08-26T02:47:47.003Z,32.50
2022-08-26T02:49:56.612Z,32.42
2022-08-26T02:52:07.392Z,32.32
2022-08-26T02:54:15.079Z,32.25
2022-08-26T02:56:37.411Z,32.18
2022-08-26T02:59:03.955Z,32.10
2022-08-26T03:01:35.683Z,32.01
2022-08-26T03:03:45.185Z,31.90
2022-08-26T03:05:55.634Z,31.80
2022-08-26T03:08:07.317Z,31.72
2022-08-26T03:10:14.570Z,31.63
2022-08-26T03:12:51.018Z,31.54
2022-08-26T03:15:25.006Z,31.43
2022-08-26T03:17:46.847Z,31.35
2022-08-26T03:20:15.724Z,31.28
2022-08-26T03:22:24.193Z,31.16
2022-08-26T03:24:39.063Z,31.07
2022-08-26T03:27:09.151Z,30.98
2022-08-26T03:29:38.242Z,30.89
2022-08-26T03:31:59.302Z,30.79
2022-08-26T03:34:25.841Z,30.66
2022-08-26T03:36:41.698Z,30.54
2022-08-26T03:39:13.000Z,30.43
2022-08-26T03:41:25.941Z,30.36
2022-08-26T03:43:35.739Z,30.28
2022-08-26T03:45:48.898Z,30.18
2022-08-26T03:48:12.714Z,30.09
2022-08-26T03:50:24.385Z,30.01
2022-08-26T03:52:43.733Z,29.92
2022-08-26T03:54:51.467Z,29.84
2022-08-26T03:57:00.987Z,29.76
2022-08-26T03:59:11.532Z,29.69
2022-08-26T04:01:26.157Z,29.61
2022-08-26T04:03:52.102Z,29.52
2022-08-26T04:06:22.103Z,29.36
2022-08-26T04:08:35.300Z,29.22
2022-08-26T04:10:54.760Z,29.11
2022-08-26T04:13:04.365Z,28.97
2022-08-26T04:15:34.716Z,28.86
2022-08-26T04:18:13.748Z,28.76
2022-08-26T04:21:24.175Z,28.62
2022-08-26T04:23:47.784Z,28.49
2022-08-26T04:26:10.978Z,28.37
2022-08-26T04:28:38.144Z,28.26
2022-08-26T04:30:45.223Z,28.16
2022-08-26T04:32:58.540Z,28.06
2022-08-26T04:35:18.568Z,27.97
2022-08-26T04:38:02.300Z,27.85
2022-08-26T04:40:25.123Z,27.73
2022-08-26T04:43:22.920Z,27.61
2022-08-26T04:45:57.754Z,27.47
2022-08-26T04:48:12.616Z,27.38
2022-08-26T04:50:36.169Z,27.28
2022-08-26T04:52:48.579Z,27.18
2022-08-26T04:55:15.807Z,27.09
2022-08-26T04:57:35.266Z,27.00
2022-08-26T04:59:55.552Z,26.89
2022-08-26T05:02:35.817Z,26.79
2022-08-26T05:05:03.115Z,26.64
2022-08-26T05:07:21.765Z,26.51
2022-08-26T05:09:43.786Z,26.42
2022-08-26T05:12:56.207Z,26.35
2022-08-26T05:15:29.621Z,26.21
2022-08-26T05:17:36.076Z,26.14
2022-08-26T05:19:45.885Z,26.04
2022-08-26T05:21:55.582Z,25.97
2022-08-26T05:24:11.020Z,25.89
2022-08-26T05:27:11.813Z,25.80
2022-08-26T05:29:33.267Z,25.73
2022-08-26T05:32:13.217Z,25.67
2022-08-26T05:34:30.410Z,25.59
2022-08-26T05:36:53.349Z,25.50
2022-08-26T05:39:27.104Z,25.43
2022-08-26T05:42:17.265Z,25.36
2022-08-26T05:44:53.546Z,25.26
2022-08-26T05:47:31.528Z,25.16
2022-08-26T05:49:51.684Z,25.06
2022-08-26T05:52:09.295Z,24.98
2022-08-26T05:54:51.534Z,24.90
2022-08-26T05:57:03.875Z,24.85
2022-08-26T05:59:46.226Z,24.79
2022-08-26T06:02:25.162Z,24.73
2022-08-26T06:04:32.479Z,24.66
2022-08-26T06:07:01.078Z,24.56
2022-08-26T06:09:11.699Z,24.49
2022-08-26T06:11:22.013Z,24.42
2022-08-26T06:13:38.174Z,24.34
2022-08-26T06:15:56.401Z,24.27
2022-08-26T06:18:16.300Z,24.22
2022-08-26T06:20:57.096Z,24.15
2022-08-26T06:23:38.591Z,24.08
2022-08-26T06:26:15.972Z,24.02
2022-08-26T06:28:22.402Z,23.93
2022-08-26T06:31:05.455Z,23.85
2022-08-26T06:33:16.176Z,23.78
2022-08-26T06:35:43.365Z,23.72
2022-08-26T06:38:01.197Z,23.66
2022-08-26T06:40:28.677Z,23.59
2022-08-26T06:43:01.763Z,23.51
2022-08-26T06:45:32.869Z,23.41
2022-08-26T06:48:05.004Z,23.29
2022-08-26T06:50:39.642Z,23.19
2022-08-26T06:53:09.390Z,23.07
2022-08-26T06:55:16.624Z,22.96
2022-08-26T06:57:50.369Z,22.87
2022-08-26T07:00:11.058Z,22.79
2022-08-26T07:03:09.796Z,22.70
2022-08-26T07:05:24.707Z,22.58
2022-08-26T07:07:53.787Z,22.51
2022-08-26T07:10:11.425Z,22.44
2022-08-26T07:12:58.604Z,22.37
2022-08-26T07:16:03.197Z,22.30
2022-08-26T07:18:39.587Z,22.23
2022-08-26T07:21:14.459Z,22.15
2022-08-26T07:24:11.081Z,22.08
2022-08-26T07:26:23.816Z,22.03
2022-08-26T07:28:53.848Z,21.98
2022-08-26T07:31:00.684Z,21.94
2022-08-26T07:33:07.688Z,21.90
2022-08-26T07:35:35.362Z,21.85
2022-08-26T07:37:42.304Z,21.78
2022-08-26T07:39:56.693Z,21.72
2022-08-26T07:42:10.119Z,21.67
2022-08-26T07:44:22.595Z,21.60
2022-08-26T07:47:10.499Z,21.52
2022-08-26T07:50:52.567Z,21.43
2022-08-26T07:53:24.427Z,21.35
2022-08-26T07:55:47.776Z,21.32
2022-08-26T07:58:17.065Z,21.27
2022-08-26T08:00:57.422Z,21.23
2022-08-26T08:03:22.751Z,21.18
2022-08-26T08:05:33.900Z,21.15
2022-08-26T08:07:44.820Z,21.09
2022-08-26T08:10:11.427Z,21.05
2022-08-26T08:12:22.094Z,20.99
2022-08-26T08:14:38.948Z,20.95
2022-08-26T08:16:46.946Z,20.92
2022-08-26T08:19:07.026Z,20.88
2022-08-26T08:21:21.276Z,20.84
2022-08-26T08:23:45.615Z,20.79
2022-08-26T08:26:16.910Z,20.73
2022-08-26T08:28:57.145Z,20.69
2022-08-26T08:31:08.000Z,20.64
2022-08-26T08:33:24.799Z,20.61
2022-08-26T08:35:47.751Z,20.58
2022-08-26T08:38:01.065Z,20.53
2022-08-26T08:40:17.432Z,20.49
2022-08-26T08:42:59.169Z,20.46
2022-08-26T08:45:43.182Z,20.38
2022-08-26T08:48:06.734Z,20.33
2022-08-26T08:50:39.257Z,20.29
2022-08-26T08:53:24.199Z,20.27
2022-08-26T08:55:46.257Z,20.24
2022-08-26T08:58:11.391Z,20.22
2022-08-26T09:00:59.093Z,20.20
2022-08-26T09:03:49.895Z,20.17
2022-08-26T09:06:24.184Z,20.17
2022-08-26T09:09:04.852Z,20.15
2022-08-26T09:12:04.235Z,20.13
2022-08-26T09:15:02.002Z,20.10
2022-08-26T09:17:20.395Z,20.08
2022-08-26T09:19:51.127Z,20.08
2022-08-26T09:22:05.791Z,20.07
2022-08-26T09:24:15.617Z,20.07
2022-08-26T09:27:00.408Z,20.07
2022-08-26T09:29:17.084Z,20.04
2022-08-26T09:31:44.945Z,20.01
2022-08-26T09:34:49.644Z,19.97
2022-08-26T09:37:20.503Z,19.98
2022-08-26T09:40:01.924Z,19.96
2022-08-26T09:42:44.637Z,19.95
2022-08-26T09:45:33.852Z,19.93
2022-08-26T09:47:55.565Z,19.92
2022-08-26T09:50:46.833Z,19.90
2022-08-26T09:53:28.492Z,19.89
2022-08-26T09:55:37.247Z,19.88
2022-08-26T09:58:20.404Z,19.88
2022-08-26T10:00:35.140Z,19.86
2022-08-26T10:03:12.692Z,19.84
2022-08-26T10:06:01.580Z,19.80
2022-08-26T10:08:30.494Z,19.77
2022-08-26T10:11:02.269Z,19.72
2022-08-26T10:13:17.453Z,19.69
2022-08-26T10:15:29.507Z,19.68
2022-08-26T10:17:51.589Z,19.67
2022-08-26T10:20:38.029Z,19.66
2022-08-26T10:23:08.996Z,19.65
2022-08-26T10:25:45.939Z,19.63
2022-08-26T10:28:37.365Z,19.63
2022-08-26T10:31:28.798Z,19.64
2022-08-26T10:33:40.397Z,19.64
2022-08-26T10:36:27.215Z,19.63
2022-08-26T10:38:40.515Z,19.63
2022-08-26T10:41:09.911Z,19.63
2022-08-26T10:43:37.347Z,19.62
2022-08-26T10:46:43.915Z,19.61
2022-08-26T10:49:18.790Z,19.59
2022-08-26T10:51:45.564Z,19.58
2022-08-26T10:55:03.365Z,19.58
2022-08-26T10:57:25.704Z,19.56
2022-08-26T11:00:23.961Z,19.55
2022-08-26T11:02:49.473Z,19.56
2022-08-26T11:05:08.138Z,19.57
2022-08-26T11:08:00.450Z,19.57
2022-08-26T11:10:45.377Z,19.57
2022-08-26T11:12:58.741Z,19.56
2022-08-26T11:15:25.996Z,19.55
2022-08-26T11:18:35.746Z,19.53
2022-08-26T11:21:06.170Z,19.53
2022-08-26T11:23:53.149Z,19.52
2022-08-26T11:26:36.265Z,19.53
2022-08-26T11:29:13.299Z,19.51
2022-08-26T11:31:31.882Z,19.50
2022-08-26T11:33:54.301Z,19.50
2022-08-26T11:36:14.391Z,19.50
2022-08-26T11:38:51.060Z,19.48
2022-08-26T11:41:42.435Z,19.47
2022-08-26T11:43:54.788Z,19.46
2022-08-26T11:46:36.760Z,19.45
2022-08-26T11:49:33.934Z,19.44
2022-08-26T11:52:33.042Z,19.46
2022-08-26T11:55:19.219Z,19.48
2022-08-26T11:58:07.678Z,19.47
2022-08-26T12:00:35.210Z,19.47
2022-08-26T12:03:15.627Z,19.47
2022-08-26T12:05:55.195Z,19.47
2022-08-26T12:08:10.473Z,19.47
2022-08-26T12:10:30.547Z,19.48
2022-08-26T12:13:10.881Z,19.48
2022-08-26T12:15:48.354Z,19.49
2022-08-26T12:18:29.639Z,19.49
2022-08-26T12:21:08.837Z,19.49
2022-08-26T12:23:50.012Z,19.46
2022-08-26T12:26:15.261Z,19.44
2022-08-26T12:28:36.045Z,19.42
2022-08-26T12:31:05.445Z,19.41
2022-08-26T12:33:23.320Z,19.40
2022-08-26T12:35:49.390Z,19.39
2022-08-26T12:38:01.501Z,19.37
2022-08-26T12:40:29.316Z,19.37
2022-08-26T12:42:43.819Z,19.37
2022-08-26T12:45:54.109Z,19.36
2022-08-26T12:48:15.063Z,19.34
2022-08-26T12:50:39.860Z,19.34
2022-08-26T12:53:10.870Z,19.33
2022-08-26T12:55:41.300Z,19.33
2022-08-26T12:58:59.786Z,19.33
2022-08-26T13:01:40.307Z,19.33
2022-08-26T13:04:07.899Z,19.31
2022-08-26T13:06:33.789Z,19.32
2022-08-26T13:08:46.210Z,19.32
2022-08-26T13:11:19.749Z,19.31
2022-08-26T13:13:45.239Z,19.32
2022-08-26T13:16:32.701Z,19.31
2022-08-26T13:19:05.349Z,19.29
2022-08-26T13:21:20.602Z,19.29
2022-08-26T13:23:47.971Z,19.28
2022-08-26T13:26:05.092Z,19.27
2022-08-26T13:28:33.585Z,19.29
2022-08-26T13:30:58.159Z,19.30
2022-08-26T13:33:05.357Z,19.30
2022-08-26T13:36:00.875Z,19.30
2022-08-26T13:38:40.089Z,19.29
2022-08-26T13:41:29.322Z,19.29
2022-08-26T13:43:36.946Z,19.27
2022-08-26T13:46:01.296Z,19.27
2022-08-26T13:48:23.267Z,19.25
2022-08-26T13:50:34.151Z,19.25
2022-08-26T13:52:57.425Z,19.25
2022-08-26T13:55:41.659Z,19.26
2022-08-26T13:58:32.711Z,19.26
2022-08-26T14:00:45.445Z,19.26
2022-08-26T14:03:02.946Z,19.25
2022-08-26T14:05:30.501Z,19.25
2022-08-26T14:07:50.489Z,19.25
2022-08-26T14:10:11.095Z,19.25
2022-08-26T14:12:51.381Z,19.26
2022-08-26T14:15:02.579Z,19.27
2022-08-26T14:17:18.606Z,19.27
2022-08-26T14:19:25.214Z,19.28
2022-08-26T14:21:34.344Z,19.28
2022-08-26T14:24:00.700Z,19.28
2022-08-26T14:26:28.940Z,19.28
2022-08-26T14:28:47.027Z,19.27
2022-08-26T14:31:02.143Z,19.29
2022-08-26T14:33:20.845Z,19.29
2022-08-26T14:35:35.183Z,19.31
2022-08-26T14:38:03.014Z,19.32
2022-08-26T14:40:52.880Z,19.33
2022-08-26T14:43:11.726Z,19.34
2022-08-26T14:47:56.915Z,19.36
2022-08-26T14:50:03.984Z,19.36
2022-08-26T14:52:27.260Z,19.38
2022-08-26T14:55:01.549Z,19.38
2022-08-26T14:57:10.278Z,19.40
2022-08-26T14:59:30.039Z,19.43
2022-08-26T15:01:36.854Z,19.44
2022-08-26T15:03:43.950Z,19.46
2022-08-26T15:05:54.950Z,19.48
2022-08-26T15:08:11.194Z,19.50
2022-08-26T15:10:24.778Z,19.52
2022-08-26T15:12:32.367Z,19.54
2022-08-26T15:14:38.938Z,19.56
2022-08-26T15:16:58.063Z,19.59
2022-08-26T15:19:16.659Z,19.63
2022-08-26T15:21:27.663Z,19.68
2022-08-26T15:23:47.854Z,19.72
2022-08-26T15:26:04.938Z,19.76
2022-08-26T15:28:46.681Z,19.82
2022-08-26T15:30:56.790Z,19.87
2022-08-26T15:33:03.328Z,19.89
2022-08-26T15:35:12.887Z,19.92
2022-08-26T15:37:19.645Z,19.96
2022-08-26T15:39:48.491Z,20.03
2022-08-26T15:42:14.117Z,20.07
2022-08-26T15:44:24.705Z,20.11
2022-08-26T15:46:40.600Z,20.14
2022-08-26T15:48:50.540Z,20.19
2022-08-26T15:51:03.576Z,20.23
2022-08-26T15:53:19.695Z,20.24
2022-08-26T15:55:49.188Z,20.23
2022-08-26T15:57:56.762Z,20.25
2022-08-26T16:00:10.478Z,20.25
2022-08-26T16:02:31.788Z,20.24
2022-08-26T16:04:39.255Z,20.26
2022-08-26T16:07:11.042Z,20.28
2022-08-26T16:09:20.862Z,20.31
2022-08-26T16:11:42.030Z,20.32
2022-08-26T16:13:52.928Z,20.32
2022-08-26T16:16:32.703Z,20.33
2022-08-26T16:18:43.500Z,20.36
2022-08-26T16:21:10.279Z,20.37
2022-08-26T16:23:20.702Z,20.38
2022-08-26T16:25:52.753Z,20.36
2022-08-26T16:28:02.932Z,20.36
2022-08-26T16:30:38.239Z,20.39
2022-08-26T16:33:02.859Z,20.41
2022-08-26T16:35:09.747Z,20.43
2022-08-26T16:37:41.379Z,20.44
2022-08-26T16:39:47.521Z,20.46
2022-08-26T16:42:14.568Z,20.49
2022-08-26T16:44:24.888Z,20.51
2022-08-26T16:46:54.564Z,20.54
2022-08-26T16:49:08.384Z,20.57
2022-08-26T16:51:28.182Z,20.62
2022-08-26T16:53:37.942Z,20.66
2022-08-26T16:55:54.302Z,20.72
2022-08-26T16:58:03.980Z,20.76
2022-08-26T17:00:33.305Z,20.81
2022-08-26T17:02:41.141Z,20.87
2022-08-26T17:04:47.511Z,20.90
2022-08-26T17:06:57.676Z,20.94
2022-08-26T17:09:16.272Z,21.00
2022-08-26T17:12:04.151Z,21.05
2022-08-26T17:14:14.471Z,21.09
2022-08-26T17:16:54.715Z,21.12
2022-08-26T17:19:02.773Z,21.17
2022-08-26T17:21:14.509Z,21.20
2022-08-26T17:23:21.594Z,21.22
2022-08-26T17:25:33.220Z,21.23
2022-08-26T17:27:39.650Z,21.23
2022-08-26T17:29:52.204Z,21.24
2022-08-26T17:32:19.152Z,21.27
2022-08-26T17:34:25.695Z,21.29
2022-08-26T17:36:43.805Z,21.30
2022-08-26T17:39:08.443Z,21.32
2022-08-26T17:41:17.535Z,21.34
2022-08-26T17:43:27.983Z,21.36
2022-08-26T17:46:07.496Z,21.37
2022-08-26T17:48:49.777Z,21.38
2022-08-26T17:50:57.508Z,21.39
2022-08-26T17:53:04.203Z,21.39
2022-08-26T17:55:36.592Z,21.42
2022-08-26T17:57:56.132Z,21.44
2022-08-26T18:00:27.474Z,21.45
2022-08-26T18:02:34.261Z,21.46
2022-08-26T18:05:13.195Z,21.48
2022-08-26T18:07:20.774Z,21.51
2022-08-26T18:09:27.728Z,21.52
2022-08-26T18:11:44.242Z,21.48
2022-08-26T18:13:50.746Z,21.47
2022-08-26T18:16:21.888Z,21.48
2022-08-26T18:18:32.440Z,21.51
2022-08-26T18:20:43.735Z,21.55
2022-08-26T18:22:53.384Z,21.62
2022-08-26T18:25:03.125Z,21.69
2022-08-26T18:27:09.886Z,21.76
2022-08-26T18:29:19.234Z,21.80
2022-08-26T18:31:36.901Z,21.85
2022-08-26T18:33:57.431Z,21.90
2022-08-26T18:36:06.934Z,21.95
2022-08-26T18:38:23.528Z,21.98
2022-08-26T18:41:11.390Z,22.03
2022-08-26T18:43:20.178Z,22.09
2022-08-26T18:45:26.751Z,22.15
2022-08-26T18:47:36.818Z,22.20
2022-08-26T18:50:17.943Z,22.28
2022-08-26T18:52:37.910Z,22.36
2022-08-26T18:55:05.736Z,22.43
2022-08-26T18:57:36.081Z,22.52
2022-08-26T19:00:03.598Z,22.57
2022-08-26T19:02:14.308Z,22.61
2022-08-26T19:04:27.291Z,22.68
2022-08-26T19:07:04.156Z,22.72
2022-08-26T19:09:27.463Z,22.77
2022-08-26T19:11:42.819Z,22.79
2022-08-26T19:13:52.987Z,22.77
2022-08-26T19:16:05.990Z,22.79
2022-08-26T19:18:25.960Z,22.83
2022-08-26T19:20:44.721Z,22.89
2022-08-26T19:23:05.764Z,22.94
2022-08-26T19:25:26.446Z,23.05
2022-08-26T19:27:33.423Z,23.08
2022-08-26T19:29:40.114Z,23.12
2022-08-26T19:31:49.545Z,23.22
2022-08-26T19:34:08.164Z,23.41
2022-08-26T19:36:29.072Z,23.69
2022-08-26T19:38:36.437Z,23.98
2022-08-26T19:40:48.154Z,24.12
2022-08-26T19:42:55.404Z,24.33
2022-08-26T19:45:24.541Z,24.53
2022-08-26T19:47:32.449Z,24.69
2022-08-26T19:49:41.985Z,24.90
2022-08-26T19:52:09.634Z,25.11
2022-08-26T19:54:19.973Z,25.35
2022-08-26T19:56:51.031Z,25.55
2022-08-26T19:58:58.611Z,25.56
2022-08-26T20:01:15.457Z,25.50
2022-08-26T20:03:27.384Z,25.52
2022-08-26T20:05:33.970Z,25.60
2022-08-26T20:07:44.285Z,25.74
2022-08-26T20:09:54.054Z,25.85
2022-08-26T20:12:02.097Z,25.89
2022-08-26T20:14:18.228Z,25.83
2022-08-26T20:16:57.568Z,25.81
2022-08-26T20:19:22.524Z,25.81
2022-08-26T20:22:07.476Z,25.84
2022-08-26T20:24:20.595Z,25.89
2022-08-26T20:26:54.015Z,26.01
2022-08-26T20:29:47.244Z,26.16
2022-08-26T20:31:56.847Z,26.33
2022-08-26T20:34:43.735Z,26.50
2022-08-26T20:36:54.896Z,26.66
2022-08-26T20:39:22.467Z,26.83
2022-08-26T20:41:34.545Z,26.98
2022-08-26T20:43:42.537Z,27.11
2022-08-26T20:45:58.958Z,27.22
2022-08-26T20:48:45.914Z,27.28
2022-08-26T20:51:01.042Z,27.35
2022-08-26T20:53:10.061Z,27.35
2022-08-26T20:55:26.861Z,27.37
2022-08-26T20:57:40.885Z,27.40
2022-08-26T21:00:51.154Z,27.54
2022-08-26T21:03:28.042Z,27.78
2022-08-26T21:05:35.807Z,27.98
2022-08-26T21:08:20.089Z,28.11
2022-08-26T21:10:34.599Z,28.25
2022-08-26T21:12:46.532Z,28.36
2022-08-26T21:15:09.242Z,28.46
2022-08-26T21:17:19.228Z,28.47
2022-08-26T21:19:31.858Z,28.52
2022-08-26T21:21:38.630Z,28.59
2022-08-26T21:23:49.481Z,28.65
2022-08-26T21:26:13.992Z,28.70
2022-08-26T21:28:23.565Z,28.79
2022-08-26T21:30:35.325Z,28.85
2022-08-26T21:32:45.027Z,28.90
2022-08-26T21:35:01.613Z,28.95
2022-08-26T21:37:13.305Z,29.02
2022-08-26T21:39:27.025Z,29.05
2022-08-26T21:41:33.708Z,29.06
2022-08-26T21:44:03.174Z,29.08
2022-08-26T21:46:53.898Z,29.13
2022-08-26T21:49:11.216Z,29.16
2022-08-26T21:51:27.103Z,29.14
2022-08-26T21:53:45.237Z,29.04
2022-08-26T21:55:59.113Z,28.92
2022-08-26T21:58:26.354Z,28.75
2022-08-26T22:00:33.130Z,28.67
2022-08-26T22:02:52.301Z,28.59
2022-08-26T22:05:05.959Z,28.58
2022-08-26T22:07:32.890Z,28.63
2022-08-26T22:10:11.927Z,28.68
2022-08-26T22:12:24.864Z,28.77
2022-08-26T22:14:38.657Z,28.79
2022-08-26T22:16:51.607Z,28.77
2022-08-26T22:19:45.740Z,28.74
2022-08-26T22:22:22.552Z,28.64
2022-08-26T22:24:35.999Z,28.53
2022-08-26T22:27:06.199Z,28.47
2022-08-26T22:29:26.162Z,28.51
2022-08-26T22:31:54.791Z,28.52
2022-08-26T22:34:21.866Z,28.49
2022-08-26T22:36:59.263Z,28.48
2022-08-26T22:39:45.331Z,28.56
2022-08-26T22:42:11.695Z,28.66
2022-08-26T22:44:20.534Z,28.79
2022-08-26T22:46:38.665Z,28.86
2022-08-26T22:48:53.709Z,28.84
2022-08-26T22:51:03.379Z,28.73
2022-08-26T22:53:10.639Z,28.59
2022-08-26T22:55:44.478Z,28.43
2022-08-26T22:58:42.721Z,28.28
2022-08-26T23:00:51.041Z,28.18
2022-08-26T23:03:19.133Z,28.13
2022-08-26T23:05:33.078Z,28.16
2022-08-26T23:07:52.139Z,28.22
2022-08-26T23:10:29.329Z,28.28
2022-08-26T23:12:40.197Z,28.32
2022-08-26T23:15:25.650Z,28.31
2022-08-26T23:17:58.984Z,28.27
2022-08-26T23:20:29.621Z,28.22
2022-08-26T23:22:42.790Z,28.19
2022-08-26T23:25:06.787Z,28.14
2022-08-26T23:27:15.031Z,28.14
2022-08-26T23:29:25.773Z,28.15
2022-08-26T23:31:34.426Z,28.14
2022-08-26T23:34:51.002Z,28.11
2022-08-26T23:37:28.270Z,27.98
2022-08-26T23:39:37.276Z,27.86
2022-08-26T23:42:04.774Z,27.82
2022-08-26T23:44:32.212Z,27.77
2022-08-26T23:46:42.363Z,27.71
2022-08-26T23:48:56.444Z,27.67
2022-08-26T23:51:34.112Z,27.65
2022-08-26T23:53:44.466Z,27.69
2022-08-26T23:55:56.622Z,27.72
2022-08-26T23:58:10.215Z,27.72
